.
WxDataArchive / Data Records for 2007-11-08
2007-11-07 November 2007 2007-11-09

Data Records for Thursday, 08 November 2007

Time	Temp	Chill	HIndex	Humid	Dewpt	 Wind 	HiWind	WindDir	Rain 	Barom 
-----	----	-----	------	-----	-----	------	------	-------	-----	----- 
00:00	34.0	34.0	34.0	68	24.6	0	0	---	0.00	30.116 
00:05	34.0	34.0	34.0	68	24.6	0	0	---	0.00	30.114 
00:10	34.0	34.0	34.0	69	24.9	0	0	---	0.00	30.114 
00:15	34.0	34.0	34.0	71	25.6	0	0	---	0.00	30.115 
00:20	34.0	34.0	34.0	71	25.6	0	0	---	0.00	30.115 
00:25	34.0	34.0	34.0	71	25.6	0	0	---	0.00	30.116 
00:30	33.8	33.8	33.8	71	25.4	0	0	---	0.00	30.116 
00:35	33.7	33.7	33.7	71	25.3	0	0	---	0.00	30.117 
00:40	33.7	33.7	33.7	72	25.7	0	0	---	0.00	30.116 
00:45	33.5	33.5	33.5	72	25.5	0	0	---	0.00	30.114 
00:50	33.5	33.5	33.5	72	25.5	0	0	---	0.00	30.114 
00:55	33.4	33.4	33.4	72	25.4	0	0	---	0.00	30.114 
01:00	33.4	33.4	33.4	72	25.4	0	0	---	0.00	30.113 
01:05	33.4	33.4	33.4	72	25.4	0	0	---	0.00	30.111 
01:10	33.5	33.5	33.5	72	25.5	0	0	---	0.00	30.111 
01:15	33.5	33.5	33.5	71	25.1	0	0	---	0.00	30.110 
01:20	33.5	33.5	33.5	71	25.1	0	0	---	0.00	30.111 
01:25	33.7	33.7	33.7	70	25.0	0	0	---	0.00	30.112 
01:30	33.8	33.8	33.8	70	25.1	0	0	---	0.00	30.110 
01:35	33.8	33.8	33.8	70	25.1	0	0	---	0.00	30.109 
01:40	33.8	33.8	33.8	70	25.1	0	0	---	0.00	30.108 
01:45	33.8	33.8	33.8	69	24.7	0	0	---	0.00	30.107 
01:50	34.0	34.0	34.0	70	25.3	0	1	248	0.00	30.108 
01:55	34.0	34.0	34.0	69	24.9	0	0	---	0.00	30.106 
02:00	34.0	34.0	34.0	69	24.9	0	0	---	0.00	30.105 
02:05	34.0	34.0	34.0	69	24.9	0	0	---	0.00	30.106 
02:10	34.1	34.1	34.1	70	25.4	0	0	---	0.00	30.105 
02:15	34.1	34.1	34.1	70	25.4	0	0	---	0.00	30.103 
02:20	34.1	34.1	34.1	70	25.4	0	1	248	0.00	30.103 
02:25	34.1	34.1	34.1	70	25.4	0	0	---	0.00	30.102 
02:30	34.1	34.1	34.1	70	25.4	0	0	---	0.00	30.102 
02:35	34.1	34.1	34.1	70	25.4	0	1	248	0.00	30.101 
02:40	34.1	34.1	34.1	70	25.4	0	0	---	0.00	30.101 
02:45	34.1	34.1	34.1	70	25.4	0	0	---	0.00	30.100 
02:50	34.1	34.1	34.1	70	25.4	0	0	---	0.00	30.099 
02:55	34.1	34.1	34.1	69	25.0	0	0	---	0.00	30.097 
03:00	34.1	34.1	34.1	69	25.0	0	1	248	0.00	30.095 
03:05	34.3	34.3	34.3	69	25.2	0	0	---	0.00	30.092 
03:10	34.3	34.3	34.3	69	25.2	0	0	---	0.00	30.089 
03:15	34.3	34.3	34.3	69	25.2	0	1	248	0.00	30.088 
03:20	34.3	34.3	34.3	69	25.2	0	1	248	0.00	30.086 
03:25	34.3	34.3	34.3	69	25.2	0	0	---	0.00	30.084 
03:30	34.3	34.3	34.3	70	25.5	0	0	---	0.00	30.082 
03:35	34.1	34.1	34.1	70	25.4	0	0	---	0.00	30.082 
03:40	34.1	34.1	34.1	71	25.7	0	0	---	0.00	30.082 
03:45	34.1	34.1	34.1	72	26.0	0	0	---	0.00	30.081 
03:50	34.1	34.1	34.1	72	26.0	0	1	248	0.00	30.079 
03:55	34.1	34.1	34.1	72	26.0	0	0	---	0.00	30.077 
04:00	34.1	34.1	34.1	72	26.0	0	0	---	0.00	30.075 
04:05	34.1	34.1	34.1	72	26.0	0	0	---	0.00	30.074 
04:10	34.1	34.1	34.1	73	26.4	0	0	---	0.00	30.072 
04:15	34.1	34.1	34.1	73	26.4	0	1	248	0.00	30.071 
04:20	34.1	34.1	34.1	72	26.0	0	1	248	0.00	30.069 
04:25	34.3	34.3	34.3	71	25.9	0	0	---	0.00	30.069 
04:30	34.3	34.3	34.3	71	25.9	0	0	---	0.00	30.068 
04:35	34.4	34.4	34.4	71	26.0	0	1	248	0.00	30.067 
04:40	34.6	34.6	34.6	69	25.5	0	2	248	0.00	30.068 
04:45	34.7	34.7	34.7	69	25.6	0	2	248	0.00	30.067 
04:50	34.9	34.9	34.9	69	25.8	0	1	248	0.00	30.065 
04:55	34.9	34.9	34.9	69	25.8	0	1	248	0.00	30.065 
05:00	35.0	35.0	35.0	70	26.2	0	1	248	0.00	30.064 
05:05	35.0	35.0	35.0	69	25.9	0	1	248	0.00	30.066 
05:10	35.0	35.0	35.0	69	25.9	0	1	248	0.00	30.066 
05:15	35.2	35.2	35.2	68	25.7	1	3	248	0.00	30.065 
05:20	35.3	35.3	35.3	68	25.8	0	1	270	0.00	30.065 
05:25	35.3	35.3	35.3	68	25.8	0	1	270	0.00	30.064 
05:30	35.3	35.3	35.3	68	25.8	0	2	248	0.00	30.066 
05:35	35.5	35.5	35.5	68	26.0	0	1	248	0.00	30.065 
05:40	35.5	35.5	35.5	68	26.0	0	3	248	0.00	30.065 
05:45	35.6	35.6	35.6	66	25.4	2	4	248	0.00	30.063 
05:50	35.9	35.9	35.9	66	25.7	2	6	248	0.00	30.061 
05:55	35.9	35.9	35.9	68	26.4	3	9	248	0.00	30.057 
06:00	35.6	35.6	35.6	71	27.1	2	7	270	0.00	30.056 
06:05	35.2	35.2	35.2	75	28.1	2	10	248	0.00	30.057 
06:10	34.9	34.9	34.9	78	28.7	1	3	248	0.00	30.056 
06:15	34.6	34.6	34.6	80	29.1	1	5	248	0.00	30.055 
06:20	34.4	34.4	34.4	81	29.2	1	4	248	0.00	30.056 
06:25	34.3	34.3	34.3	82	29.4	0	3	225	0.00	30.052 
06:30	34.3	34.3	34.3	84	30.0	0	2	202	0.00	30.043 
06:35	34.1	34.1	34.1	84	29.8	1	4	90	0.00	30.038 
06:40	34.0	34.0	34.0	85	30.0	0	3	90	0.00	30.041 
06:45	34.0	34.0	34.0	86	30.3	0	2	68	0.00	30.046 
06:50	33.8	33.8	33.8	86	30.1	0	3	338	0.00	30.044 
06:55	33.8	33.8	33.8	87	30.3	0	2	112	0.00	30.041 
07:00	33.8	33.8	33.8	87	30.3	0	2	112	0.00	30.042 
07:05	33.7	33.7	33.7	88	30.5	0	1	112	0.00	30.042 
07:10	33.7	33.7	33.7	88	30.5	0	1	112	0.00	30.041 
07:15	33.7	33.7	33.7	88	30.5	0	1	112	0.00	30.042 
07:20	33.7	33.7	33.7	88	30.5	0	1	112	0.00	30.041 
07:25	33.7	33.7	33.7	89	30.8	0	1	112	0.00	30.040 
07:30	33.7	33.7	33.7	89	30.8	0	1	112	0.00	30.041 
07:35	33.7	33.7	33.7	89	30.8	0	1	112	0.00	30.040 
07:40	33.8	33.8	33.8	89	30.9	0	2	112	0.00	30.039 
07:45	33.8	33.8	33.8	89	30.9	0	1	68	0.00	30.038 
07:50	33.8	33.8	33.8	90	31.2	0	1	68	0.00	30.040 
07:55	34.0	34.0	34.0	90	31.4	0	2	68	0.00	30.040 
08:00	34.0	34.0	34.0	90	31.4	0	2	0	0.00	30.039 
08:05	34.1	34.1	34.1	90	31.5	0	3	45	0.00	30.040 
08:10	34.1	34.1	34.1	89	31.2	0	1	45	0.00	30.039 
08:15	34.3	34.3	34.3	89	31.4	0	3	45	0.00	30.036 
08:20	34.3	34.3	34.3	89	31.4	1	5	90	0.00	30.035 
08:25	34.4	34.4	34.4	89	31.5	0	2	90	0.00	30.030 
08:30	34.6	34.6	34.6	88	31.4	1	4	90	0.00	30.031 
08:35	34.7	34.7	34.7	88	31.5	0	4	112	0.00	30.030 
08:40	34.9	34.9	34.9	88	31.7	0	3	112	0.00	30.029 
08:45	35.0	35.0	35.0	88	31.8	0	2	90	0.00	30.030 
08:50	35.2	35.2	35.2	87	31.7	0	2	90	0.00	30.027 
08:55	35.3	35.3	35.3	87	31.8	0	4	90	0.00	30.025 
09:00	35.5	35.5	35.5	86	31.7	1	3	90	0.00	30.026 
09:05	35.6	35.6	35.6	86	31.8	0	2	90	0.00	30.026 
09:10	35.9	35.9	35.9	85	31.8	0	1	90	0.00	30.024 
09:15	36.0	36.0	36.0	84	31.6	1	4	90	0.00	30.024 
09:20	36.2	36.2	36.2	84	31.8	0	3	90	0.00	30.024 
09:25	36.3	36.3	36.3	83	31.6	0	2	112	0.00	30.023 
09:30	36.5	36.5	36.5	82	31.5	1	5	135	0.00	30.022 
09:35	36.8	36.8	36.8	81	31.5	1	5	112	0.00	30.022 
09:40	36.9	36.9	36.9	80	31.3	1	4	112	0.00	30.021 
09:45	37.3	37.3	37.3	80	31.7	1	3	112	0.00	30.020 
09:50	37.6	37.6	37.6	79	31.7	1	6	112	0.00	30.020 
09:55	37.8	37.8	37.8	77	31.2	1	4	90	0.00	30.020 
10:00	38.0	38.0	38.0	76	31.1	1	3	90	0.00	30.019 
10:05	38.2	38.2	38.2	74	30.7	1	5	112	0.00	30.018 
10:10	38.3	38.3	38.3	74	30.8	1	4	270	0.00	30.017 
10:15	38.6	38.6	38.6	73	30.7	1	5	112	0.00	30.017 
10:20	38.8	38.8	38.8	72	30.6	1	6	90	0.00	30.016 
10:25	39.1	39.1	39.1	70	30.2	1	4	90	0.00	30.018 
10:30	39.3	39.3	39.3	69	30.0	1	5	90	0.00	30.017 
10:35	39.5	39.5	39.5	69	30.2	1	4	90	0.00	30.014 
10:40	39.8	39.8	39.8	68	30.1	1	6	292	0.00	30.013 
10:45	39.9	39.9	39.9	68	30.2	2	5	68	0.00	30.010 
10:50	40.1	40.1	40.1	66	29.7	1	4	292	0.00	30.009 
10:55	40.3	40.3	40.3	66	29.9	1	4	112	0.00	30.007 
11:00	40.5	40.5	40.5	66	30.0	1	3	90	0.00	30.005 
11:05	40.6	40.6	40.6	65	29.8	1	4	90	0.00	30.004 
11:10	40.8	40.8	40.8	65	30.0	1	4	90	0.00	30.003 
11:15	41.1	41.1	41.1	64	29.9	1	5	90	0.00	29.997 
11:20	41.5	41.5	41.5	63	29.9	2	5	90	0.00	29.990 
11:25	42.1	42.1	42.1	62	30.0	1	6	90	0.00	29.987 
11:30	42.5	42.5	42.5	60	29.6	2	5	90	0.00	29.985 
11:35	42.6	42.6	42.6	59	29.3	2	5	90	0.00	29.978 
11:40	42.9	42.9	42.9	61	30.4	1	4	248	0.00	29.977 
11:45	43.3	43.3	43.3	58	29.5	2	6	270	0.00	29.972 
11:50	43.8	43.8	43.8	54	28.3	2	9	90	0.00	29.969 
11:55	44.1	44.1	44.1	55	29.0	2	6	90	0.00	29.966 
12:00	44.6	44.6	44.6	53	28.5	3	9	270	0.00	29.961 
12:05	44.9	44.9	44.9	52	28.4	2	9	90	0.00	29.956 
12:10	45.2	45.2	45.2	51	28.2	2	5	248	0.00	29.954 
12:15	45.5	45.5	45.5	49	27.5	2	11	248	0.00	29.951 
12:20	45.7	45.7	45.7	48	27.1	2	11	90	0.00	29.950 
12:25	45.8	45.8	45.8	50	28.2	1	5	68	0.00	29.947 
12:30	46.1	46.1	46.1	47	27.0	2	7	270	0.00	29.944 
12:35	46.1	46.1	46.1	46	26.5	2	7	90	0.00	29.939 
12:40	46.1	46.1	46.1	45	26.0	3	7	112	0.00	29.938 
12:45	46.2	46.2	46.2	44	25.5	2	5	90	0.00	29.937 
12:50	46.2	46.2	46.2	46	26.6	2	6	45	0.00	29.937 
12:55	46.4	46.4	46.4	48	27.8	1	4	248	0.00	29.934 
13:00	46.7	46.7	46.7	47	27.6	2	5	90	0.00	29.933 
13:05	46.8	46.8	46.8	47	27.6	2	5	90	0.00	29.930 
13:10	47.0	47.0	47.0	44	26.2	2	6	248	0.00	29.930 
13:15	47.1	47.1	47.1	43	25.8	2	5	248	0.00	29.923 
13:20	47.6	47.6	47.6	47	28.4	1	4	248	0.00	29.923 
13:25	47.9	47.9	47.9	45	27.6	1	4	248	0.00	29.923 
13:30	48.2	48.2	48.2	46	28.4	1	6	248	0.00	29.909 
13:35	48.2	48.2	48.2	43	26.8	2	9	225	0.00	29.909 
13:40	48.3	48.3	48.3	42	26.3	3	7	248	0.00	29.909 
13:45	48.6	48.6	48.6	42	26.6	2	6	248	0.00	29.905 
13:50	48.6	48.6	48.6	41	26.0	2	9	270	0.00	29.905 
13:55	48.8	48.8	48.8	43	27.3	1	7	90	0.00	29.905 
14:00	49.1	49.1	49.1	44	28.1	1	5	270	0.00	29.901 
14:05	49.2	49.2	49.2	41	26.5	3	7	248	0.00	29.901 
14:10	49.6	49.6	49.6	44	28.6	2	5	270	0.00	29.901 
14:15	50.2	50.2	50.2	43	28.6	1	9	248	0.00	29.891 
14:20	50.7	50.7	50.7	42	28.5	2	10	270	0.00	29.891 
14:25	50.5	50.5	50.5	40	27.1	3	9	270	0.00	29.891 
14:30	50.5	50.5	50.5	39	26.5	2	9	68	0.00	29.886 
14:35	51.0	51.0	51.0	41	28.1	1	5	270	0.00	29.886 
14:40	50.8	50.8	50.8	39	26.7	2	9	90	0.00	29.886 
14:45	50.7	50.7	50.7	40	27.3	2	5	68	0.00	29.885 
14:50	50.4	50.4	50.4	41	27.6	3	6	270	0.00	29.885 
14:55	50.2	50.2	50.2	42	28.0	1	6	68	0.00	29.885 
15:00	50.1	50.1	50.1	42	27.9	1	5	248	0.00	29.874 
15:05	49.8	49.8	49.8	41	27.1	2	7	68	0.00	29.874 
15:10	49.5	49.5	49.5	40	26.2	2	6	248	0.00	29.874 
15:15	49.4	49.4	49.4	41	26.7	2	8	248	0.00	29.885 
15:20	49.2	49.2	49.2	42	27.1	1	4	248	0.00	29.885 
15:25	49.1	49.1	49.1	43	27.6	1	4	248	0.00	29.885 
15:30	48.9	48.9	48.9	43	27.4	1	6	248	0.00	29.884 
15:35	48.8	48.8	48.8	43	27.3	1	6	270	0.00	29.884 
15:40	48.6	48.6	48.6	43	27.1	1	5	90	0.00	29.884 
15:45	48.6	48.6	48.6	44	27.7	1	3	90	0.00	29.884 
15:50	48.5	48.5	48.5	43	27.0	1	4	45	0.00	29.884 
15:55	48.5	48.5	48.5	45	28.1	0	2	68	0.00	29.884 
16:00	48.5	48.5	48.5	44	27.6	1	7	90	0.00	29.879 
16:05	48.5	48.5	48.5	44	27.6	1	3	90	0.00	29.879 
16:10	48.5	48.5	48.5	44	27.6	1	6	90	0.00	29.879 
16:15	48.5	48.5	48.5	45	28.1	0	4	90	0.00	29.872 
16:20	48.5	48.5	48.5	44	27.6	0	1	90	0.00	29.872 
16:25	48.6	48.6	48.6	45	28.2	0	2	90	0.00	29.872 
16:30	48.6	48.6	48.6	45	28.2	1	3	112	0.00	29.872 
16:35	48.8	48.8	48.8	46	28.9	0	2	112	0.00	29.872 
16:40	48.6	48.6	48.6	45	28.2	1	3	90	0.00	29.872 
16:45	48.5	48.5	48.5	47	29.2	0	2	90	0.00	29.879 
16:50	48.3	48.3	48.3	47	29.0	1	5	90	0.00	29.879 
16:55	48.3	48.3	48.3	48	29.5	0	3	248	0.00	29.879 
17:00	48.3	48.3	48.3	48	29.5	1	5	248	0.00	29.884 
17:05	48.3	48.3	48.3	47	29.0	0	2	270	0.00	29.884 
17:10	48.2	48.2	48.2	46	28.4	0	2	270	0.00	29.884 
17:15	48.2	48.2	48.2	46	28.4	1	4	248	0.00	29.887 
17:20	48.2	48.2	48.2	46	28.4	1	4	248	0.00	29.887 
17:25	48.2	48.2	48.2	46	28.4	1	4	248	0.00	29.887 
17:30	48.0	48.0	48.0	46	28.2	0	2	248	0.00	29.891 
17:35	48.0	48.0	48.0	46	28.2	1	3	270	0.00	29.891 
17:40	47.9	47.9	47.9	46	28.1	0	3	270	0.00	29.891 
17:45	47.7	47.7	47.7	47	28.5	0	2	270	0.00	29.889 
17:50	47.6	47.6	47.6	48	28.9	0	1	270	0.00	29.889 
17:55	47.4	47.4	47.4	48	28.7	0	0	---	0.00	29.889 
18:00	47.1	47.1	47.1	49	28.9	0	0	---	0.00	29.899 
18:05	46.7	46.7	46.7	51	29.5	0	0	---	0.00	29.899 
18:10	46.4	46.4	46.4	52	29.7	0	0	---	0.00	29.899 
18:15	46.1	46.1	46.1	53	29.9	0	0	---	0.00	29.901 
18:20	45.7	45.7	45.7	54	30.0	0	0	---	0.00	29.901 
18:25	45.4	45.4	45.4	55	30.2	0	0	---	0.00	29.901 
18:30	45.2	45.2	45.2	56	30.4	0	0	---	0.00	29.906 
18:35	44.9	44.9	44.9	56	30.2	0	0	---	0.00	29.906 
18:40	44.9	44.9	44.9	57	30.6	0	0	---	0.00	29.906 
18:45	44.8	44.8	44.8	58	30.9	0	0	---	0.00	29.908 
18:50	44.8	44.8	44.8	58	30.9	0	0	---	0.00	29.908 
18:55	44.6	44.6	44.6	59	31.2	0	0	---	0.00	29.908 
19:00	44.5	44.5	44.5	59	31.1	0	1	270	0.00	29.910 
19:05	44.5	44.5	44.5	58	30.7	0	0	---	0.00	29.910 
19:10	44.5	44.5	44.5	58	30.7	0	0	---	0.00	29.910 
19:15	44.3	44.3	44.3	59	30.9	0	0	---	0.00	29.908 
19:20	44.2	44.2	44.2	59	30.8	0	0	---	0.00	29.908 
19:25	44.2	44.2	44.2	58	30.4	0	0	---	0.00	29.908 
19:30	44.3	44.3	44.3	58	30.5	0	0	---	0.00	29.908 
19:35	44.3	44.3	44.3	57	30.0	0	0	---	0.00	29.908 
19:40	44.5	44.5	44.5	57	30.2	0	1	270	0.00	29.908 
19:45	44.5	44.5	44.5	57	30.2	0	2	338	0.00	29.906 
19:50	44.5	44.5	44.5	57	30.2	0	1	338	0.00	29.906 
19:55	44.5	44.5	44.5	57	30.2	0	0	---	0.00	29.906 
20:00	44.5	44.5	44.5	57	30.2	0	1	338	0.00	29.905 
20:05	44.3	44.3	44.3	57	30.0	0	0	---	0.00	29.905 
20:10	44.3	44.3	44.3	57	30.0	0	1	338	0.00	29.905 
20:15	44.3	44.3	44.3	57	30.0	0	0	---	0.00	29.896 
20:20	44.3	44.3	44.3	57	30.0	0	1	338	0.00	29.896 
20:25	44.3	44.3	44.3	57	30.0	0	1	338	0.00	29.896 
20:30	44.3	44.3	44.3	58	30.5	0	0	---	0.00	29.896 
20:35	44.2	44.2	44.2	58	30.4	0	0	---	0.00	29.896 
20:40	44.2	44.2	44.2	58	30.4	0	0	---	0.00	29.896 
20:45	44.1	44.1	44.1	58	30.3	0	1	338	0.00	29.893 
20:50	43.9	43.9	43.9	58	30.1	0	2	338	0.00	29.893 
20:55	43.8	43.8	43.8	58	30.0	0	1	338	0.00	29.893 
21:00	43.8	43.8	43.8	57	29.6	0	1	338	0.00	29.889 
21:05	43.8	43.8	43.8	57	29.6	0	3	112	0.00	29.889 
21:10	43.8	43.8	43.8	57	29.6	0	1	112	0.00	29.889 
21:15	43.8	43.8	43.8	58	30.0	0	2	112	0.00	29.886 
21:20	43.6	43.6	43.6	58	29.8	0	1	112	0.00	29.886 
21:25	43.5	43.5	43.5	58	29.7	0	0	---	0.00	29.886 
21:30	43.1	43.1	43.1	60	30.2	0	1	112	0.00	29.886 
21:35	42.5	42.5	42.5	62	30.4	0	1	112	0.00	29.886 
21:40	42.1	42.1	42.1	62	30.0	0	0	---	0.00	29.886 
21:45	41.6	41.6	41.6	63	30.0	0	1	112	0.00	29.884 
21:50	41.3	41.3	41.3	63	29.7	0	1	112	0.00	29.884 
21:55	41.1	41.1	41.1	64	29.9	0	1	112	0.00	29.884 
22:00	40.9	40.9	40.9	65	30.1	0	1	112	0.00	29.881 
22:05	40.8	40.8	40.8	65	30.0	0	1	112	0.00	29.881 
22:10	40.8	40.8	40.8	65	30.0	0	1	112	0.00	29.881 
22:15	40.8	40.8	40.8	65	30.0	0	1	112	0.00	29.873 
22:20	40.8	40.8	40.8	65	30.0	0	1	112	0.00	29.873 
22:25	40.9	40.9	40.9	65	30.1	0	1	112	0.00	29.873 
22:30	41.1	41.1	41.1	65	30.2	0	1	112	0.00	29.870 
22:35	41.1	41.1	41.1	65	30.2	0	1	112	0.00	29.870 
22:40	41.2	41.2	41.2	65	30.3	0	1	112	0.00	29.870 
22:45	41.2	41.2	41.2	66	30.7	0	1	112	0.00	29.866 
22:50	41.2	41.2	41.2	65	30.3	0	1	112	0.00	29.866 
22:55	41.1	41.1	41.1	65	30.2	0	1	112	0.00	29.866 
23:00	41.1	41.1	41.1	66	30.6	0	0	---	0.00	29.868 
23:05	40.9	40.9	40.9	67	30.8	0	0	---	0.00	29.868 
23:10	40.8	40.8	40.8	68	31.1	0	0	---	0.00	29.860 
23:15	40.6	40.6	40.6	68	30.9	0	0	---	0.00	29.860 
23:20	40.5	40.5	40.5	68	30.8	0	1	112	0.00	29.856 
23:25	40.8	40.8	40.8	67	30.7	0	1	112	0.00	29.857 
23:30	41.1	41.1	41.1	67	31.0	0	1	112	0.00	29.855 
23:35	41.3	41.3	41.3	66	30.8	0	1	112	0.00	29.855 
23:40	41.3	41.3	41.3	67	31.2	0	1	112	0.00	29.856 
23:45	41.6	41.6	41.6	66	31.1	0	2	112	0.00	29.856 
23:50	41.8	41.8	41.8	65	30.9	0	2	112	0.00	29.855 
23:55	42.1	42.1	42.1	65	31.2	0	3	248	0.00	29.853 

CoCoRaHS
IN-AL-39
A2 Web Hosting
Creative Commons License
GoDaddy
Look for:

loaded 2017-12-12 01:55:30 • last modified 2010-11-18 10:43:29
Privacy PolicyDisclaimer
• wx.awcolley.com is powered by PmWiki v.2002016 •
• all content (unless otherwise noted) © 2017 A W Colley